Terminal Aerodrome Forecast
Issued by NWS

Current Version | Previous Version | Text Only | Print | Product List | Glossary On
Versions: 1 2 3 4 5 6 7 8 9 10 11 12 13 14 15 16 17
000
FTAK31 PANC 231730
TAFACD
TAF
PACD 231730Z 2318/2418 18006KT P6SM VCSH SCT025 BKN050
     FM232000 22010KT P6SM SCT050 BKN150
     FM240400 20006KT 6SM -SHSN BR BKN040
     FM241000 17012KT P6SM VCSH SCT050 BKN080
     FM241700 15015G25KT 6SM -SN BR BKN025 OVC050=

USA.gov is the U.S. government's official web portal to all federal, state and local government web resources and services.